Time;durP1;ratioP1;P1;durP2;ratioP2;P2;SDS_P1;SDS_P2;PMS_P1;PMS_P2;Temp;Humidity;BMP_temperature;BMP_pressure;BME280_temperature;BME280_humidity;BME280_pressure;Samples;Min_cycle;Max_cycle;Signal;HPM_P1;HPM_P2
2024/04/28 00:01:51;;;;;;;4.55;2.42;;;21.60;99.90;;;;;;5396140;21;20008;-49
2024/04/28 00:04:17;;;;;;;5.85;3.38;;;21.60;99.90;;;;;;5381369;26;20000;-49
2024/04/28 00:06:43;;;;;;;5.05;3.00;;;21.60;99.90;;;;;;5381757;26;20001;-49
2024/04/28 00:09:09;;;;;;;5.47;2.47;;;21.60;99.90;;;;;;5381892;26;20000;-49
2024/04/28 00:11:34;;;;;;;4.97;3.10;;;21.60;99.90;;;;;;5381689;26;20008;-49
2024/04/28 00:14:00;;;;;;;6.47;2.47;;;21.60;99.90;;;;;;5381452;26;20007;-49
2024/04/28 00:16:26;;;;;;;5.88;2.75;;;21.60;99.90;;;;;;5381611;26;20444;-49
2024/04/28 00:18:52;;;;;;;3.70;2.58;;;21.60;99.90;;;;;;5409426;26;19996;-49
2024/04/28 00:21:18;;;;;;;5.57;2.65;;;21.50;99.90;;;;;;5381572;26;20000;-49
2024/04/28 00:23:44;;;;;;;3.70;2.38;;;21.50;99.90;;;;;;5409281;26;20313;-49
2024/04/28 00:26:09;;;;;;;4.03;2.67;;;21.60;99.90;;;;;;5381500;26;20007;-49
2024/04/28 00:28:35;;;;;;;4.57;2.97;;;21.50;99.90;;;;;;5381762;26;20000;-49
2024/04/28 00:31:01;;;;;;;5.45;3.13;;;21.50;99.90;;;;;;5381377;26;20011;-49
2024/04/28 00:33:27;;;;;;;4.18;2.60;;;21.50;99.90;;;;;;5381376;26;19999;-49
2024/04/28 00:35:53;;;;;;;4.57;2.80;;;21.50;99.90;;;;;;5381214;26;20344;-49
2024/04/28 00:38:18;;;;;;;4.60;3.35;;;21.50;99.90;;;;;;5381425;26;20000;-49
2024/04/28 00:40:51;;;;;;;5.35;2.67;;;21.50;99.90;;;;;;5381369;26;20444;-50
2024/04/28 00:43:19;;;;;;;5.70;3.08;;;21.50;99.90;;;;;;5381500;26;20000;-50
2024/04/28 00:45:44;;;;;;;;;;;21.50;99.90;;;;;;5381778;26;20001;-49
2024/04/28 00:48:10;;;;;;;4.88;2.60;;;21.50;99.90;;;;;;5381180;26;20261;-49
2024/04/28 00:50:36;;;;;;;4.88;3.20;;;21.50;99.90;;;;;;5381530;26;20344;-49
2024/04/28 00:53:05;;;;;;;7.30;3.42;;;21.50;99.90;;;;;;5381435;26;20390;-49
2024/04/28 00:55:31;;;;;;;5.93;3.42;;;21.50;99.90;;;;;;5379315;26;20024;-49
2024/04/28 00:57:58;;;;;;;5.38;3.60;;;21.50;99.90;;;;;;5381043;26;20007;-49
2024/04/28 01:00:24;;;;;;;4.35;2.80;;;21.50;99.90;;;;;;5381353;26;20040;-49
2024/04/28 01:02:50;;;;;;;4.72;2.97;;;21.50;99.90;;;;;;5381030;26;20003;-49
2024/04/28 01:05:16;;;;;;;5.75;3.25;;;21.40;99.90;;;;;;5381136;26;19996;-48
2024/04/28 01:07:43;;;;;;;5.32;3.25;;;21.50;99.90;;;;;;5381078;26;20069;-49
2024/04/28 01:10:09;;;;;;;5.22;3.70;;;21.40;99.90;;;;;;5409007;26;20004;-49
2024/04/28 01:12:35;;;;;;;5.35;3.67;;;21.40;99.90;;;;;;5379128;26;20046;-49
2024/04/28 01:15:01;;;;;;;5.60;3.45;;;21.40;99.90;;;;;;5380008;26;20069;-48
2024/04/28 01:17:27;;;;;;;5.82;3.38;;;21.40;99.90;;;;;;5380286;26;19996;-49
2024/04/28 01:19:52;;;;;;;5.63;3.70;;;21.40;99.90;;;;;;5380553;26;20447;-50
2024/04/28 01:22:18;;;;;;;6.10;3.30;;;21.40;99.90;;;;;;5380900;26;20002;-50
2024/04/28 01:24:44;;;;;;;5.00;3.10;;;21.50;99.90;;;;;;5380714;26;19996;-54
2024/04/28 01:27:10;;;;;;;5.35;3.60;;;21.40;99.90;;;;;;5380992;26;19996;-50
2024/04/28 01:29:36;;;;;;;5.50;3.40;;;21.40;99.90;;;;;;5408532;26;19996;-50
2024/04/28 01:32:01;;;;;;;5.28;3.80;;;21.50;99.90;;;;;;5380708;26;20003;-50
2024/04/28 01:34:27;;;;;;;5.30;3.33;;;21.50;99.90;;;;;;5380392;26;19993;-50
2024/04/28 01:36:53;;;;;;;5.78;3.58;;;21.50;99.90;;;;;;5408233;26;20516;-50
2024/04/28 01:39:19;;;;;;;5.13;2.95;;;21.40;99.90;;;;;;5380477;26;20517;-50
2024/04/28 01:41:44;;;;;;;4.93;3.40;;;21.50;99.90;;;;;;5380761;26;19992;-50
2024/04/28 01:44:10;;;;;;;5.57;3.10;;;21.40;99.90;;;;;;5380393;26;20004;-50
2024/04/28 01:46:36;;;;;;;5.85;3.63;;;21.40;99.90;;;;;;5408028;26;19996;-49
2024/04/28 01:49:02;;;;;;;6.03;4.10;;;21.40;99.90;;;;;;5408078;26;20523;-50
2024/04/28 01:51:28;;;;;;;5.97;3.63;;;21.40;99.90;;;;;;5380252;26;19992;-49
2024/04/28 01:53:53;;;;;;;4.18;3.17;;;21.40;99.90;;;;;;5408067;26;20065;-48
2024/04/28 01:56:19;;;;;;;5.10;3.72;;;21.40;99.90;;;;;;5380029;26;20015;-49
2024/04/28 01:58:45;;;;;;;6.38;3.42;;;21.40;99.90;;;;;;5380197;26;20069;-49
2024/04/28 02:01:26;;;;;;;4.20;3.28;;;21.40;99.90;;;;;;5380857;26;20320;-50
2024/04/28 02:03:52;;;;;;;4.55;3.00;;;21.40;99.90;;;;;;5379915;26;20061;-49
2024/04/28 02:06:17;;;;;;;5.00;3.78;;;21.40;99.90;;;;;;5380012;26;20000;-49
2024/04/28 02:08:43;;;;;;;4.32;2.90;;;21.40;99.90;;;;;;5380059;26;20008;-50
2024/04/28 02:11:09;;;;;;;6.55;3.30;;;21.40;99.90;;;;;;5379914;26;20006;-49
2024/04/28 02:13:35;;;;;;;4.50;3.35;;;21.40;99.90;;;;;;5379687;26;20044;-48
2024/04/28 02:16:01;;;;;;;5.35;2.97;;;21.40;99.90;;;;;;5379832;26;20008;-48
2024/04/28 02:18:26;;;;;;;3.67;2.67;;;21.30;99.90;;;;;;5378016;26;20336;-49
2024/04/28 02:20:52;;;;;;;4.72;3.22;;;21.40;99.90;;;;;;5379738;26;20011;-49
2024/04/28 02:23:18;;;;;;;5.70;3.40;;;21.40;99.90;;;;;;5379520;26;20368;-50
2024/04/28 02:25:44;;;;;;;4.20;3.25;;;21.40;99.90;;;;;;5402946;26;20007;-49
2024/04/28 02:28:10;;;;;;;4.72;2.85;;;21.30;99.90;;;;;;5374024;26;20012;-50
2024/04/28 02:30:35;;;;;;;5.93;3.47;;;21.30;99.90;;;;;;5360698;26;20004;-50
2024/04/28 02:33:01;;;;;;;5.53;3.33;;;21.30;99.90;;;;;;5368662;26;20008;-48
2024/04/28 02:35:27;;;;;;;5.00;3.10;;;21.30;99.90;;;;;;5382156;26;20010;-49
2024/04/28 02:37:54;;;;;;;4.50;3.00;;;21.30;99.90;;;;;;5382690;26;20001;-49
2024/04/28 02:40:23;;;;;;;5.30;3.33;;;21.30;99.90;;;;;;5382633;26;20011;-49
2024/04/28 02:42:48;;;;;;;4.68;3.47;;;21.30;99.90;;;;;;5382503;26;20437;-50
2024/04/28 02:50:45;;;;;;;5.93;3.67;;;21.30;99.90;;;;;;5360011;26;20402;-49
2024/04/28 02:53:10;;;;;;;4.72;2.92;;;21.30;99.90;;;;;;5410010;26;20008;-49
2024/04/28 02:55:36;;;;;;;4.80;3.50;;;21.30;99.90;;;;;;5382380;26;20440;-49
2024/04/28 02:58:02;;;;;;;4.55;3.22;;;21.30;99.90;;;;;;5407023;26;20077;-49
2024/04/28 03:02:59;;;;;;;4.55;3.13;;;21.30;99.90;;;;;;5342056;26;20033;-53
2024/04/28 03:05:25;;;;;;;4.95;3.55;;;21.30;99.90;;;;;;5344367;26;20052;-61
2024/04/28 03:07:51;;;;;;;3.75;2.78;;;21.30;99.90;;;;;;5344149;26;20067;-53
2024/04/28 03:10:17;;;;;;;5.05;2.83;;;21.30;99.90;;;;;;5344337;26;19997;-53
2024/04/28 03:12:42;;;;;;;5.07;3.40;;;21.30;99.90;;;;;;5345913;26;20067;-52
2024/04/28 03:15:08;;;;;;;3.90;2.97;;;21.30;99.90;;;;;;5347426;26;19997;-52
2024/04/28 03:17:34;;;;;;;5.53;3.50;;;21.30;99.90;;;;;;5347511;26;20004;-53
2024/04/28 03:20:00;;;;;;;5.13;3.45;;;21.30;99.90;;;;;;5346057;26;20092;-52
2024/04/28 03:22:26;;;;;;;5.22;2.85;;;21.30;99.90;;;;;;5345911;26;20420;-52
2024/04/28 03:24:51;;;;;;;5.00;3.20;;;21.30;99.90;;;;;;5345661;26;19997;-52
2024/04/28 03:27:17;;;;;;;4.80;3.42;;;21.30;99.90;;;;;;5347572;26;20001;-52
2024/04/28 03:29:43;;;;;;;4.65;3.17;;;21.30;99.90;;;;;;5347431;26;20417;-52
2024/04/28 03:32:09;;;;;;;6.38;3.47;;;21.30;99.90;;;;;;5347344;26;19997;-52
2024/04/28 03:34:34;;;;;;;4.57;3.13;;;21.30;99.90;;;;;;5345622;26;20008;-51
2024/04/28 03:37:00;;;;;;;5.57;2.83;;;21.30;99.90;;;;;;5345861;26;20008;-52
2024/04/28 03:39:26;;;;;;;4.45;3.00;;;21.20;99.90;;;;;;5346417;26;20000;-52
2024/04/28 03:41:52;;;;;;;4.15;3.20;;;21.20;99.90;;;;;;5345462;26;20280;-52
2024/04/28 03:44:18;;;;;;;4.05;2.90;;;21.20;99.90;;;;;;5347332;26;20011;-52
2024/04/28 03:46:43;;;;;;;3.90;2.80;;;21.20;99.90;;;;;;5347181;26;20001;-52
2024/04/28 03:49:09;;;;;;;5.72;3.42;;;21.20;99.90;;;;;;5347206;26;20003;-52
2024/04/28 03:51:35;;;;;;;4.57;2.80;;;21.20;99.90;;;;;;5347069;26;20070;-53
2024/04/28 03:54:01;;;;;;;3.72;3.13;;;21.20;99.90;;;;;;5345611;26;20078;-52
2024/04/28 03:56:27;;;;;;;3.53;2.50;;;21.20;99.90;;;;;;5345378;26;19997;-53
2024/04/28 03:58:52;;;;;;;5.38;2.90;;;21.20;99.90;;;;;;5347033;26;19993;-52
2024/04/28 04:01:18;;;;;;;3.50;2.70;;;21.20;99.90;;;;;;5347067;26;20330;-53
2024/04/28 04:03:44;;;;;;;4.70;3.08;;;21.20;99.90;;;;;;5346959;26;20065;-53
2024/04/28 04:06:10;;;;;;;4.75;3.85;;;21.20;99.90;;;;;;5344992;26;20041;-52
2024/04/28 04:08:36;;;;;;;5.18;3.08;;;21.20;99.90;;;;;;5347142;26;20007;-53
2024/04/28 04:11:01;;;;;;;3.40;2.63;;;21.20;99.90;;;;;;5347241;26;20011;-52
2024/04/28 04:13:27;;;;;;;3.42;2.53;;;21.20;99.90;;;;;;5316604;26;20003;-53
2024/04/28 04:15:53;;;;;;;3.40;3.03;;;21.20;99.90;;;;;;5346615;26;19997;-52
2024/04/28 04:18:19;;;;;;;4.65;3.47;;;21.20;99.90;;;;;;5346779;26;20079;-52
2024/04/28 04:20:45;;;;;;;4.95;3.15;;;21.10;99.90;;;;;;5346701;26;20421;-52
2024/04/28 04:23:11;;;;;;;4.18;3.08;;;21.10;99.90;;;;;;5346580;26;20003;-52
2024/04/28 04:25:37;;;;;;;4.82;2.75;;;21.10;99.90;;;;;;5346614;26;20012;-53
2024/04/28 04:28:03;;;;;;;3.00;2.55;;;21.10;99.90;;;;;;5346705;26;20008;-52
2024/04/28 04:30:29;;;;;;;4.30;2.55;;;21.10;99.90;;;;;;5346661;26;20003;-53
2024/04/28 04:32:55;;;;;;;2.95;2.30;;;21.20;99.90;;;;;;5346548;26;20007;-53
2024/04/28 04:35:20;;;;;;;4.63;2.97;;;21.10;99.90;;;;;;5346348;26;19992;-53
2024/04/28 04:37:46;;;;;;;4.20;2.90;;;21.10;99.90;;;;;;5346322;26;20105;-52
2024/04/28 04:40:13;;;;;;;4.18;2.95;;;21.10;99.90;;;;;;5346421;26;20003;-53
2024/04/28 04:42:39;;;;;;;4.03;2.95;;;21.10;99.90;;;;;;5346529;26;20004;-52
2024/04/28 04:45:05;;;;;;;4.55;3.00;;;21.10;99.90;;;;;;5346564;26;19993;-52
2024/04/28 04:47:31;;;;;;;4.40;2.60;;;21.10;99.90;;;;;;5346464;26;20071;-52
2024/04/28 04:49:57;;;;;;;4.93;2.83;;;21.10;99.90;;;;;;5345306;26;20009;-52
2024/04/28 04:52:23;;;;;;;4.03;2.60;;;21.10;99.90;;;;;;5345725;26;20003;-56
2024/04/28 04:54:49;;;;;;;3.20;2.10;;;21.10;99.90;;;;;;5346239;26;20062;-56
2024/04/28 04:57:15;;;;;;;4.57;2.78;;;21.10;99.90;;;;;;5346273;26;20000;-53
2024/04/28 04:59:41;;;;;;;2.75;2.28;;;21.00;99.90;;;;;;5346164;26;20008;-53
2024/04/28 05:02:07;;;;;;;3.67;2.60;;;21.10;99.90;;;;;;5344393;26;20452;-53
2024/04/28 05:04:33;;;;;;;3.05;2.40;;;21.00;99.90;;;;;;5346187;26;20000;-54
2024/04/28 05:06:59;;;;;;;3.22;2.35;;;21.00;99.90;;;;;;5346033;26;20000;-52
2024/04/28 05:09:24;;;;;;;3.50;2.35;;;21.00;99.90;;;;;;5344328;26;19997;-52
2024/04/28 05:11:50;;;;;;;3.10;2.40;;;21.00;99.90;;;;;;5346127;26;20078;-54
2024/04/28 05:14:16;;;;;;;2.80;2.30;;;21.00;99.90;;;;;;5345893;26;20001;-52
2024/04/28 05:16:42;;;;;;;3.92;2.83;;;21.10;99.90;;;;;;5345890;26;20001;-52
2024/04/28 05:19:07;;;;;;;4.75;2.90;;;21.00;99.90;;;;;;5344335;26;20001;-53
2024/04/28 05:21:33;;;;;;;3.60;2.38;;;21.00;99.90;;;;;;5346101;26;19997;-51
2024/04/28 05:24:00;;;;;;;3.30;2.30;;;21.00;99.90;;;;;;5345663;26;19997;-52
2024/04/28 05:26:26;;;;;;;2.67;1.90;;;21.00;99.90;;;;;;5345581;26;20001;-52
2024/04/28 05:28:52;;;;;;;2.95;2.30;;;21.00;99.90;;;;;;5345721;26;20461;-52
2024/04/28 05:31:17;;;;;;;3.45;2.00;;;21.00;99.90;;;;;;5345603;26;20336;-52
2024/04/28 05:33:43;;;;;;;3.33;2.10;;;21.00;99.90;;;;;;5345725;26;20078;-53
2024/04/28 05:36:09;;;;;;;3.00;2.10;;;21.00;99.90;;;;;;5345637;26;20020;-53
2024/04/28 05:38:35;;;;;;;3.08;1.80;;;21.00;99.90;;;;;;5345690;26;20007;-53
2024/04/28 05:41:03;;;;;;;2.65;2.00;;;21.00;99.90;;;;;;5343509;26;20393;-53
2024/04/28 05:43:30;;;;;;;2.45;1.70;;;21.00;99.90;;;;;;5345590;26;20008;-63
2024/04/28 05:45:56;;;;;;;3.28;1.88;;;21.00;99.90;;;;;;5345645;26;20009;-52
2024/04/28 05:48:22;;;;;;;2.83;1.90;;;21.00;99.90;;;;;;5345337;26;19997;-52
2024/04/28 05:50:48;;;;;;;4.10;2.15;;;21.00;99.90;;;;;;5343688;26;20012;-52
2024/04/28 05:53:13;;;;;;;3.00;2.08;;;21.00;99.90;;;;;;5345351;26;19996;-52
2024/04/28 05:55:39;;;;;;;2.53;1.90;;;21.00;99.90;;;;;;5344030;26;20074;-52
2024/04/28 05:58:05;;;;;;;3.63;1.92;;;21.00;99.90;;;;;;5345534;26;20452;-52
2024/04/28 06:00:31;;;;;;;3.80;1.95;;;21.00;99.90;;;;;;5345014;26;20322;-52
2024/04/28 06:02:58;;;;;;;2.95;2.03;;;21.00;99.90;;;;;;5347323;26;20081;-52
2024/04/28 06:05:24;;;;;;;3.53;2.30;;;20.90;99.90;;;;;;5348203;26;20011;-53
2024/04/28 06:07:50;;;;;;;3.25;1.95;;;21.00;99.90;;;;;;5348617;26;20005;-52
2024/04/28 06:10:15;;;;;;;2.47;1.63;;;21.00;99.90;;;;;;5348535;26;19996;-52
2024/04/28 06:12:41;;;;;;;3.20;1.85;;;21.00;99.90;;;;;;5348353;26;20009;-52
2024/04/28 06:15:07;;;;;;;2.63;1.58;;;21.00;99.90;;;;;;5348489;26;19997;-52
2024/04/28 06:17:33;;;;;;;3.80;2.10;;;21.00;99.90;;;;;;5348125;26;20444;-52
2024/04/28 06:19:59;;;;;;;2.70;1.80;;;21.00;99.90;;;;;;5337266;26;20441;-52
2024/04/28 06:22:24;;;;;;;4.22;2.28;;;21.00;99.90;;;;;;5314644;26;20013;-52
2024/04/28 06:24:51;;;;;;;4.90;2.13;;;20.90;99.90;;;;;;5323661;26;20016;-52
2024/04/28 06:27:16;;;;;;;2.97;1.80;;;20.90;99.90;;;;;;5310753;26;20006;-52
2024/04/28 06:29:42;;;;;;;3.70;2.20;;;21.00;99.90;;;;;;5310486;26;20079;-52
2024/04/28 06:32:09;;;;;;;2.15;1.52;;;21.00;99.90;;;;;;5310800;26;20008;-52
2024/04/28 06:34:34;;;;;;;1.90;1.70;;;21.00;99.90;;;;;;5308989;27;20029;-52
2024/04/28 06:37:00;;;;;;;4.18;1.70;;;21.00;99.90;;;;;;5310343;26;20029;-52
2024/04/28 06:39:26;;;;;;;3.20;1.95;;;21.00;99.90;;;;;;5310600;26;20469;-51
2024/04/28 06:41:52;;;;;;;3.83;2.13;;;21.00;99.90;;;;;;5313415;26;19998;-52
2024/04/28 06:44:19;;;;;;;3.83;1.80;;;21.00;99.90;;;;;;5311746;27;20002;-52
2024/04/28 06:46:45;;;;;;;3.88;1.98;;;21.00;99.90;;;;;;5311917;27;20329;-51
2024/04/28 06:49:11;;;;;;;3.10;2.08;;;21.00;99.90;;;;;;5313777;26;20012;-51
2024/04/28 06:51:36;;;;;;;3.80;1.92;;;21.00;99.90;;;;;;5313421;26;20009;-51
2024/04/28 06:54:02;;;;;;;3.47;1.80;;;21.00;99.90;;;;;;5313381;26;20038;-53
2024/04/28 06:56:28;;;;;;;3.47;2.22;;;21.00;99.90;;;;;;5313410;26;20008;-53
2024/04/28 06:58:54;;;;;;;3.65;1.98;;;21.00;99.90;;;;;;5313275;26;20001;-53
2024/04/28 07:01:19;;;;;;;3.95;1.92;;;21.00;99.90;;;;;;5313246;26;20013;-53
2024/04/28 07:03:45;;;;;;;3.03;2.00;;;21.00;99.90;;;;;;5340234;26;20095;-53
2024/04/28 07:06:11;;;;;;;1.92;1.58;;;21.00;99.90;;;;;;5313304;26;19997;-53
2024/04/28 07:08:37;;;;;;;3.25;2.15;;;21.00;99.90;;;;;;5313283;26;19997;-52
2024/04/28 07:11:03;;;;;;;2.50;1.40;;;21.00;99.90;;;;;;5313357;26;19998;-53
2024/04/28 07:13:29;;;;;;;3.10;1.73;;;21.00;99.90;;;;;;5311961;26;20026;-53
2024/04/28 07:15:55;;;;;;;2.13;1.60;;;21.00;99.90;;;;;;5283074;27;20002;-52
2024/04/28 07:18:21;;;;;;;2.67;1.35;;;21.00;99.90;;;;;;5313141;26;20009;-52
2024/04/28 07:20:47;;;;;;;3.13;2.10;;;21.00;99.90;;;;;;5313093;26;20009;-53
2024/04/28 07:23:12;;;;;;;2.22;1.73;;;21.00;99.90;;;;;;5340182;26;20012;-52
2024/04/28 07:25:38;;;;;;;2.40;1.92;;;21.00;99.90;;;;;;5313182;26;20006;-52
2024/04/28 07:28:04;;;;;;;2.58;1.63;;;21.00;99.90;;;;;;5310867;27;20014;-53
2024/04/28 07:30:30;;;;;;;3.03;1.40;;;21.00;99.90;;;;;;5339900;26;20013;-53
2024/04/28 07:32:56;;;;;;;2.28;1.17;;;21.00;99.90;;;;;;5282752;27;20341;-52
2024/04/28 07:35:24;;;;;;;3.95;1.60;;;21.00;99.90;;;;;;5311219;27;20358;-53
2024/04/28 07:37:50;;;;;;;3.00;1.60;;;21.00;99.90;;;;;;5312649;26;20084;-54
2024/04/28 07:40:16;;;;;;;2.42;1.60;;;21.00;99.90;;;;;;5312862;26;20049;-51
2024/04/28 07:42:42;;;;;;;3.22;1.30;;;21.00;99.90;;;;;;5312802;26;20465;-53
2024/04/28 07:45:08;;;;;;;4.45;1.38;;;21.00;99.90;;;;;;5312743;26;19998;-53
2024/04/28 07:47:34;;;;;;;3.20;1.55;;;21.00;99.90;;;;;;5312746;26;20469;-51
2024/04/28 07:50:00;;;;;;;1.98;1.60;;;21.10;99.90;;;;;;5312357;26;20012;-53
2024/04/28 07:52:26;;;;;;;2.20;1.27;;;21.00;99.90;;;;;;5312447;26;20437;-51
2024/04/28 07:54:52;;;;;;;3.15;1.35;;;21.00;99.90;;;;;;5312262;26;20017;-52
2024/04/28 07:57:18;;;;;;;3.45;2.10;;;21.10;99.90;;;;;;5311081;27;19998;-52
2024/04/28 07:59:44;;;;;;;3.65;1.58;;;21.10;99.90;;;;;;5312612;26;20385;-52
2024/04/28 08:02:09;;;;;;;4.00;1.65;;;21.10;99.90;;;;;;5312364;26;19998;-52
2024/04/28 08:04:35;;;;;;;2.13;1.42;;;21.10;99.90;;;;;;5312467;26;20362;-51
2024/04/28 08:07:01;;;;;;;3.88;1.42;;;21.10;99.90;;;;;;5312287;26;20337;-52
2024/04/28 08:09:27;;;;;;;2.88;1.42;;;21.10;99.90;;;;;;5312459;26;20006;-52
2024/04/28 08:11:53;;;;;;;2.67;1.67;;;21.10;99.90;;;;;;5312219;26;20453;-53
2024/04/28 08:14:18;;;;;;;2.15;1.30;;;21.10;99.90;;;;;;5312104;26;20002;-52
2024/04/28 08:16:44;;;;;;;2.75;1.13;;;21.10;99.90;;;;;;5310650;27;19998;-52
2024/04/28 08:19:10;;;;;;;4.30;1.80;;;21.10;99.90;;;;;;5312157;26;20350;-52
2024/04/28 08:21:36;;;;;;;3.58;1.52;;;21.10;99.90;;;;;;5310417;27;19997;-52
2024/04/28 08:24:01;;;;;;;3.25;1.75;;;21.10;99.90;;;;;;5311802;26;20013;-52
2024/04/28 08:26:27;;;;;;;2.88;1.50;;;21.10;99.90;;;;;;5311742;26;20071;-53
2024/04/28 08:28:53;;;;;;;1.45;1.23;;;21.10;99.90;;;;;;5311917;26;19998;-53
2024/04/28 08:31:19;;;;;;;4.28;1.73;;;21.10;99.90;;;;;;5312019;26;19997;-53
2024/04/28 08:33:44;;;;;;;2.90;1.50;;;21.10;99.90;;;;;;5312311;26;20400;-51
2024/04/28 08:36:10;;;;;;;1.55;1.13;;;21.10;99.90;;;;;;5311810;26;20002;-52
2024/04/28 08:38:36;;;;;;;6.03;1.80;;;21.10;99.90;;;;;;5311706;26;20052;-52
2024/04/28 08:41:07;;;;;;;2.42;1.30;;;21.10;99.90;;;;;;5311902;26;20001;-52
2024/04/28 08:43:33;;;;;;;3.90;1.38;;;21.10;99.90;;;;;;5311753;26;20002;-51
2024/04/28 08:46:00;;;;;;;2.28;1.40;;;21.10;99.90;;;;;;5311714;26;19998;-52
2024/04/28 08:48:27;;;;;;;2.58;1.88;;;21.10;99.90;;;;;;5311683;26;20001;-52
2024/04/28 08:50:53;;;;;;;4.60;1.70;;;21.10;99.90;;;;;;5311631;26;20012;-52
2024/04/28 08:53:21;;;;;;;3.78;1.98;;;21.10;99.90;;;;;;5321214;26;20001;-52
2024/04/28 08:55:46;;;;;;;;;;;21.10;99.90;;;;;;5343433;26;20008;-52
2024/04/28 08:58:12;;;;;;;3.70;1.90;;;21.20;99.90;;;;;;5340771;26;19999;-52
2024/04/28 09:00:38;;;;;;;3.80;1.27;;;21.20;99.90;;;;;;5342390;26;20108;-52
2024/04/28 09:03:06;;;;;;;2.08;1.17;;;21.20;99.90;;;;;;5342348;26;20457;-52
2024/04/28 09:05:32;;;;;;;3.15;1.63;;;21.20;99.90;;;;;;5340647;26;20566;-53
2024/04/28 09:08:01;;;;;;;2.72;1.17;;;21.20;99.90;;;;;;5340281;26;20001;-52
2024/04/28 09:10:28;;;;;;;3.10;1.60;;;21.20;99.90;;;;;;5345704;26;20069;-52
2024/04/28 09:12:54;;;;;;;2.95;1.63;;;21.20;99.90;;;;;;5346100;26;20007;-51
2024/04/28 09:15:20;;;;;;;2.58;1.52;;;21.20;99.90;;;;;;5345826;26;19993;-52
2024/04/28 09:17:46;;;;;;;3.42;1.90;;;21.20;99.90;;;;;;5346151;26;20005;-51
2024/04/28 09:20:18;;;;;;;2.25;1.52;;;21.20;99.90;;;;;;5345881;26;20000;-51
2024/04/28 09:22:45;;;;;;;4.22;1.60;;;21.20;99.90;;;;;;5344156;26;20012;-52
2024/04/28 09:25:10;;;;;;;3.63;1.30;;;21.20;99.90;;;;;;5345707;26;20082;-52
2024/04/28 09:27:36;;;;;;;2.50;1.58;;;21.20;99.90;;;;;;5345676;26;20009;-53
2024/04/28 09:30:03;;;;;;;3.58;1.70;;;21.20;99.90;;;;;;5345724;26;20011;-52
2024/04/28 09:32:32;;;;;;;3.65;1.77;;;21.20;99.90;;;;;;5345640;26;20066;-52
2024/04/28 09:35:06;;;;;;;2.55;1.60;;;21.20;99.90;;;;;;5345525;26;19997;-52
2024/04/28 09:37:35;;;;;;;3.28;1.60;;;21.20;99.90;;;;;;5344616;26;20019;-52
2024/04/28 09:40:06;;;;;;;2.60;1.50;;;21.20;99.90;;;;;;5345523;26;20476;-52
2024/04/28 09:42:33;;;;;;;2.72;1.98;;;21.20;99.90;;;;;;5345494;26;20005;-52
2024/04/28 09:45:01;;;;;;;2.67;1.65;;;21.30;99.90;;;;;;5345474;26;20001;-51
2024/04/28 09:47:28;;;;;;;3.22;1.50;;;21.20;99.90;;;;;;5345460;26;20011;-52
2024/04/28 09:49:55;;;;;;;3.47;1.75;;;21.30;99.90;;;;;;5343498;26;20321;-52
2024/04/28 09:52:21;;;;;;;5.65;1.80;;;21.30;99.90;;;;;;5337555;26;20001;-52
2024/04/28 09:54:49;;;;;;;2.88;1.50;;;21.30;99.90;;;;;;5307548;26;20005;-52
2024/04/28 09:57:15;;;;;;;;;;;21.30;99.90;;;;;;5307907;26;20076;-52
2024/04/28 09:59:43;;;;;;;4.35;1.67;;;21.30;99.90;;;;;;5307358;26;19934;-52
2024/04/28 10:02:13;;;;;;;2.63;1.35;;;21.30;99.90;;;;;;5306889;26;20005;-52
2024/04/28 10:04:42;;;;;;;1.83;1.40;;;21.30;99.90;;;;;;5307155;26;20005;-52
2024/04/28 10:07:12;;;;;;;3.55;1.88;;;21.30;99.90;;;;;;5306843;27;20105;-52
2024/04/28 10:09:38;;;;;;;5.15;1.73;;;21.30;99.90;;;;;;5308657;26;20006;-52
2024/04/28 10:12:06;;;;;;;2.38;1.63;;;21.30;99.90;;;;;;5310377;26;19994;-52
2024/04/28 10:14:32;;;;;;;4.70;1.70;;;21.30;99.90;;;;;;5308707;27;20004;-51
2024/04/28 10:16:58;;;;;;;2.05;1.50;;;21.30;99.90;;;;;;5310322;26;20005;-52
2024/04/28 10:19:37;;;;;;;2.72;1.50;;;21.30;99.90;;;;;;5308576;27;20523;-52
2024/04/28 10:22:07;;;;;;;2.22;1.27;;;21.30;99.90;;;;;;5310171;26;20020;-53
2024/04/28 10:24:33;;;;;;;3.67;2.50;;;21.40;99.90;;;;;;5310094;26;20005;-52
2024/04/28 10:26:59;;;;;;;2.00;1.58;;;21.40;99.90;;;;;;5310410;26;20013;-53
2024/04/28 10:29:31;;;;;;;2.53;1.30;;;21.40;99.90;;;;;;5310194;26;20009;-52
2024/04/28 10:31:57;;;;;;;2.15;1.10;;;21.40;99.90;;;;;;5310134;26;20001;-53
2024/04/28 10:34:29;;;;;;;2.60;1.58;;;21.40;99.90;;;;;;5310323;26;20076;-52
2024/04/28 10:36:56;;;;;;;3.50;1.90;;;21.40;99.90;;;;;;5310283;26;20075;-52
2024/04/28 10:39:35;;;;;;;1.65;1.15;;;21.40;99.90;;;;;;5310538;26;20438;-52
2024/04/28 10:42:02;;;;;;;3.80;1.85;;;21.40;99.90;;;;;;5309992;26;20013;-52
2024/04/28 10:44:30;;;;;;;3.63;1.55;;;21.40;99.90;;;;;;5309882;26;20338;-52
2024/04/28 10:46:55;;;;;;;2.78;1.48;;;21.50;99.90;;;;;;5308430;27;20429;-52
2024/04/28 10:49:21;;;;;;;2.25;1.50;;;21.50;99.90;;;;;;5311696;26;20005;-52
2024/04/28 10:51:47;;;;;;;2.38;1.85;;;21.50;99.90;;;;;;5313261;26;20005;-52
2024/04/28 10:54:13;;;;;;;4.60;2.33;;;21.50;99.90;;;;;;5311543;26;20429;-52
2024/04/28 10:56:39;;;;;;;3.72;2.03;;;21.50;99.90;;;;;;5313323;26;20034;-53
2024/04/28 10:59:04;;;;;;;2.17;1.48;;;21.50;99.90;;;;;;5313100;27;20341;-53
2024/04/28 11:01:31;;;;;;;3.90;1.90;;;21.50;99.90;;;;;;5313333;26;20434;-53
2024/04/28 11:03:58;;;;;;;4.07;2.27;;;21.60;99.90;;;;;;5311636;27;19998;-53
2024/04/28 11:06:25;;;;;;;3.40;1.70;;;21.60;99.90;;;;;;5313495;26;20264;-53
2024/04/28 11:08:50;;;;;;;4.05;2.30;;;21.60;99.90;;;;;;5313099;26;20492;-53
2024/04/28 11:11:16;;;;;;;6.28;2.67;;;21.60;99.90;;;;;;5311220;27;20449;-53
2024/04/28 11:13:43;;;;;;;5.15;2.22;;;21.60;99.90;;;;;;5311326;26;19997;-53
2024/04/28 11:16:09;;;;;;;4.53;2.50;;;21.60;99.90;;;;;;5312866;26;20009;-53
2024/04/28 11:18:35;;;;;;;3.50;2.08;;;21.70;99.90;;;;;;5312863;26;20064;-53
2024/04/28 11:21:01;;;;;;;3.75;2.22;;;21.70;99.90;;;;;;5311285;26;20002;-52
2024/04/28 11:23:30;;;;;;;5.50;2.83;;;21.60;99.90;;;;;;5313050;26;20008;-52
2024/04/28 11:26:06;;;;;;;6.18;2.03;;;21.70;99.90;;;;;;5312763;26;20016;-52
2024/04/28 11:28:36;;;;;;;3.28;2.05;;;21.60;99.90;;;;;;5312623;26;20012;-52
2024/04/28 11:31:03;;;;;;;2.72;1.65;;;21.70;99.90;;;;;;5339733;26;20002;-53
2024/04/28 11:33:29;;;;;;;2.88;2.10;;;21.70;99.90;;;;;;5312735;26;20419;-53
2024/04/28 11:35:58;;;;;;;4.22;2.65;;;21.70;99.90;;;;;;5313148;26;20006;-52
2024/04/28 11:38:24;;;;;;;3.97;2.80;;;21.70;99.90;;;;;;5311372;26;20008;-52
2024/04/28 11:40:53;;;;;;;4.30;2.75;;;21.70;99.90;;;;;;5312915;26;20006;-52
2024/04/28 11:43:26;;;;;;;5.20;2.55;;;21.80;99.90;;;;;;5312838;26;20033;-53
2024/04/28 11:45:55;;;;;;;4.60;3.63;;;21.80;99.90;;;;;;5312749;26;19998;-53
2024/04/28 11:48:21;;;;;;;5.80;3.33;;;21.80;99.90;;;;;;5312616;26;20076;-52
2024/04/28 11:50:47;;;;;;;4.60;3.08;;;21.80;99.90;;;;;;5310875;27;20006;-53
2024/04/28 11:53:12;;;;;;;3.33;2.30;;;21.80;99.90;;;;;;5312610;26;20453;-53
2024/04/28 11:55:38;;;;;;;4.40;2.75;;;21.80;99.90;;;;;;5312335;26;19997;-52
2024/04/28 11:58:04;;;;;;;5.18;3.03;;;21.80;99.90;;;;;;5312449;26;20008;-52
2024/04/28 12:00:31;;;;;;;6.55;2.45;;;21.80;99.90;;;;;;5311675;26;20006;-52
2024/04/28 12:02:57;;;;;;;4.93;2.65;;;21.90;99.90;;;;;;5312481;26;20031;-53
2024/04/28 12:05:23;;;;;;;6.28;3.00;;;21.90;99.90;;;;;;5312560;26;20001;-52
2024/04/28 12:07:49;;;;;;;4.90;3.08;;;21.90;99.90;;;;;;5312409;26;20048;-52
2024/04/28 12:10:15;;;;;;;7.70;3.40;;;21.90;99.90;;;;;;5312352;26;20029;-52
2024/04/28 12:12:41;;;;;;;3.75;2.47;;;21.90;99.90;;;;;;5312302;26;20001;-52
2024/04/28 12:15:07;;;;;;;5.07;2.65;;;21.90;99.90;;;;;;5312138;26;20009;-52
2024/04/28 12:17:33;;;;;;;5.00;3.47;;;22.00;99.90;;;;;;5310464;27;20359;-52
2024/04/28 12:19:58;;;;;;;5.70;3.75;;;22.00;99.90;;;;;;5312284;26;20009;-52
2024/04/28 12:22:24;;;;;;;4.65;3.28;;;22.00;99.90;;;;;;5312158;26;20038;-52
2024/04/28 12:24:50;;;;;;;4.80;3.13;;;22.00;99.90;;;;;;5312162;26;20033;-53
2024/04/28 12:27:16;;;;;;;4.85;3.15;;;22.00;99.90;;;;;;5311925;26;20008;-52
2024/04/28 12:29:46;;;;;;;5.70;2.92;;;22.00;99.90;;;;;;5312118;26;20009;-52
2024/04/28 12:32:13;;;;;;;4.25;2.83;;;22.00;99.90;;;;;;5311767;26;20071;-52
2024/04/28 12:34:39;;;;;;;7.40;3.35;;;22.00;99.90;;;;;;5311931;26;20401;-52
2024/04/28 12:37:05;;;;;;;5.25;3.33;;;22.00;99.90;;;;;;5311782;26;20013;-52
2024/04/28 12:39:33;;;;;;;5.82;3.42;;;22.10;99.90;;;;;;5339277;26;20016;-52
2024/04/28 12:41:59;;;;;;;4.18;3.40;;;22.10;99.90;;;;;;5312184;26;19998;-52
2024/04/28 12:44:25;;;;;;;5.35;3.35;;;22.10;99.90;;;;;;5311797;26;20076;-52
2024/04/28 12:46:51;;;;;;;4.93;3.38;;;22.10;99.90;;;;;;5311921;26;20001;-52
2024/04/28 12:49:17;;;;;;;5.40;3.50;;;22.10;99.90;;;;;;5311919;26;20001;-52
2024/04/28 12:51:43;;;;;;;6.05;3.42;;;22.10;99.90;;;;;;5311861;26;20412;-52